sensor_id;sensor_type;location;lat;lon;timestamp;pressure;altitude;pressure_sealevel;temperature
8362;BMP180;4218;48.326;14.304;2023-05-29T00:01:20;98461.00;;;12.50
8362;BMP180;4218;48.326;14.304;2023-05-29T00:03:49;98465.00;;;12.50
8362;BMP180;4218;48.326;14.304;2023-05-29T00:06:18;98457.00;;;12.30
8362;BMP180;4218;48.326;14.304;2023-05-29T00:08:44;98458.00;;;12.30
8362;BMP180;4218;48.326;14.304;2023-05-29T00:11:10;98450.00;;;12.30
8362;BMP180;4218;48.326;14.304;2023-05-29T00:13:36;98448.00;;;12.20
8362;BMP180;4218;48.326;14.304;2023-05-29T00:16:03;98455.00;;;12.10
8362;BMP180;4218;48.326;14.304;2023-05-29T00:18:29;98451.00;;;12.10
8362;BMP180;4218;48.326;14.304;2023-05-29T00:20:55;98456.00;;;12.20
8362;BMP180;4218;48.326;14.304;2023-05-29T00:23:21;98451.00;;;12.10
8362;BMP180;4218;48.326;14.304;2023-05-29T00:25:47;98447.00;;;12.10
8362;BMP180;4218;48.326;14.304;2023-05-29T00:28:12;98449.00;;;11.90
8362;BMP180;4218;48.326;14.304;2023-05-29T00:30:40;98450.00;;;12.10
8362;BMP180;4218;48.326;14.304;2023-05-29T00:33:06;98442.00;;;12.00
8362;BMP180;4218;48.326;14.304;2023-05-29T00:35:35;98444.00;;;12.00
8362;BMP180;4218;48.326;14.304;2023-05-29T00:38:01;98439.00;;;12.00
8362;BMP180;4218;48.326;14.304;2023-05-29T00:40:26;98451.00;;;12.10
8362;BMP180;4218;48.326;14.304;2023-05-29T00:42:52;98444.00;;;11.80
8362;BMP180;4218;48.326;14.304;2023-05-29T00:45:20;98447.00;;;11.70
8362;BMP180;4218;48.326;14.304;2023-05-29T00:47:47;98441.00;;;11.60
8362;BMP180;4218;48.326;14.304;2023-05-29T00:50:13;98439.00;;;11.60
8362;BMP180;4218;48.326;14.304;2023-05-29T00:52:45;98444.00;;;11.60
8362;BMP180;4218;48.326;14.304;2023-05-29T00:55:14;98436.00;;;11.50
8362;BMP180;4218;48.326;14.304;2023-05-29T00:57:40;98445.00;;;11.50
8362;BMP180;4218;48.326;14.304;2023-05-29T01:00:06;98437.00;;;11.60
8362;BMP180;4218;48.326;14.304;2023-05-29T01:02:39;98437.00;;;11.60
8362;BMP180;4218;48.326;14.304;2023-05-29T01:05:05;98440.00;;;11.60
8362;BMP180;4218;48.326;14.304;2023-05-29T01:07:32;98440.00;;;11.70
8362;BMP180;4218;48.326;14.304;2023-05-29T01:09:59;98442.00;;;11.70
8362;BMP180;4218;48.326;14.304;2023-05-29T01:12:41;98447.00;;;11.70
8362;BMP180;4218;48.326;14.304;2023-05-29T01:20:50;98449.00;;;11.50
8362;BMP180;4218;48.326;14.304;2023-05-29T01:26:42;98447.00;;;11.50
8362;BMP180;4218;48.326;14.304;2023-05-29T01:29:13;98446.00;;;11.40
8362;BMP180;4218;48.326;14.304;2023-05-29T01:31:42;98451.00;;;11.40
8362;BMP180;4218;48.326;14.304;2023-05-29T01:34:07;98451.00;;;11.50
8362;BMP180;4218;48.326;14.304;2023-05-29T01:36:33;98450.00;;;11.50
8362;BMP180;4218;48.326;14.304;2023-05-29T01:38:59;98441.00;;;11.50
8362;BMP180;4218;48.326;14.304;2023-05-29T01:41:25;98442.00;;;11.60
8362;BMP180;4218;48.326;14.304;2023-05-29T01:43:52;98442.00;;;11.70
8362;BMP180;4218;48.326;14.304;2023-05-29T01:46:20;98434.00;;;11.70
8362;BMP180;4218;48.326;14.304;2023-05-29T01:48:47;98440.00;;;11.60
8362;BMP180;4218;48.326;14.304;2023-05-29T01:51:15;98442.00;;;11.60
8362;BMP180;4218;48.326;14.304;2023-05-29T01:53:44;98435.00;;;11.50
8362;BMP180;4218;48.326;14.304;2023-05-29T01:56:09;98433.00;;;11.60
8362;BMP180;4218;48.326;14.304;2023-05-29T01:58:38;98430.00;;;11.50
8362;BMP180;4218;48.326;14.304;2023-05-29T02:01:05;98432.00;;;11.50
8362;BMP180;4218;48.326;14.304;2023-05-29T02:03:31;98432.00;;;11.40
8362;BMP180;4218;48.326;14.304;2023-05-29T02:06:01;98432.00;;;11.30
8362;BMP180;4218;48.326;14.304;2023-05-29T02:08:27;98435.00;;;11.30
8362;BMP180;4218;48.326;14.304;2023-05-29T02:10:54;98428.00;;;11.40
8362;BMP180;4218;48.326;14.304;2023-05-29T02:13:20;98430.00;;;11.40
8362;BMP180;4218;48.326;14.304;2023-05-29T02:15:46;98422.00;;;11.40
8362;BMP180;4218;48.326;14.304;2023-05-29T02:18:15;98423.00;;;11.40
8362;BMP180;4218;48.326;14.304;2023-05-29T02:20:42;98426.00;;;11.40
8362;BMP180;4218;48.326;14.304;2023-05-29T02:23:09;98429.00;;;11.60
8362;BMP180;4218;48.326;14.304;2023-05-29T02:25:36;98421.00;;;11.50
8362;BMP180;4218;48.326;14.304;2023-05-29T02:28:02;98425.00;;;11.50
8362;BMP180;4218;48.326;14.304;2023-05-29T02:30:29;98425.00;;;11.40
8362;BMP180;4218;48.326;14.304;2023-05-29T02:32:57;98425.00;;;11.50
8362;BMP180;4218;48.326;14.304;2023-05-29T02:35:23;98422.00;;;11.40
8362;BMP180;4218;48.326;14.304;2023-05-29T02:37:52;98416.00;;;11.40
8362;BMP180;4218;48.326;14.304;2023-05-29T02:40:19;98419.00;;;11.20
8362;BMP180;4218;48.326;14.304;2023-05-29T02:42:47;98414.00;;;11.30
8362;BMP180;4218;48.326;14.304;2023-05-29T02:45:16;98428.00;;;11.30
8362;BMP180;4218;48.326;14.304;2023-05-29T02:47:42;98427.00;;;11.20
8362;BMP180;4218;48.326;14.304;2023-05-29T02:50:12;98423.00;;;11.10
8362;BMP180;4218;48.326;14.304;2023-05-29T02:52:42;98436.00;;;11.00
8362;BMP180;4218;48.326;14.304;2023-05-29T02:55:09;98427.00;;;10.90
8362;BMP180;4218;48.326;14.304;2023-05-29T02:57:35;98430.00;;;10.80
8362;BMP180;4218;48.326;14.304;2023-05-29T03:00:02;98426.00;;;10.70
8362;BMP180;4218;48.326;14.304;2023-05-29T03:02:32;98430.00;;;10.60
8362;BMP180;4218;48.326;14.304;2023-05-29T03:04:58;98432.00;;;10.50
8362;BMP180;4218;48.326;14.304;2023-05-29T03:07:25;98429.00;;;10.40
8362;BMP180;4218;48.326;14.304;2023-05-29T03:09:51;98439.00;;;10.20
8362;BMP180;4218;48.326;14.304;2023-05-29T03:12:19;98430.00;;;10.10
8362;BMP180;4218;48.326;14.304;2023-05-29T03:14:45;98435.00;;;10.10
8362;BMP180;4218;48.326;14.304;2023-05-29T03:17:11;98437.00;;;10.10
8362;BMP180;4218;48.326;14.304;2023-05-29T03:19:37;98442.00;;;10.10
8362;BMP180;4218;48.326;14.304;2023-05-29T03:22:05;98434.00;;;10.20
8362;BMP180;4218;48.326;14.304;2023-05-29T03:24:30;98431.00;;;10.10
8362;BMP180;4218;48.326;14.304;2023-05-29T03:26:55;98443.00;;;10.00
8362;BMP180;4218;48.326;14.304;2023-05-29T03:29:22;98443.00;;;10.00
8362;BMP180;4218;48.326;14.304;2023-05-29T03:31:47;98448.00;;;9.90
8362;BMP180;4218;48.326;14.304;2023-05-29T03:34:13;98436.00;;;9.90
8362;BMP180;4218;48.326;14.304;2023-05-29T03:36:40;98436.00;;;9.90
8362;BMP180;4218;48.326;14.304;2023-05-29T03:39:07;98435.00;;;9.90
8362;BMP180;4218;48.326;14.304;2023-05-29T03:41:33;98438.00;;;9.80
8362;BMP180;4218;48.326;14.304;2023-05-29T03:43:58;98444.00;;;9.90
8362;BMP180;4218;48.326;14.304;2023-05-29T03:46:24;98447.00;;;9.90
8362;BMP180;4218;48.326;14.304;2023-05-29T03:48:50;98441.00;;;10.10
8362;BMP180;4218;48.326;14.304;2023-05-29T03:51:15;98448.00;;;10.10
8362;BMP180;4218;48.326;14.304;2023-05-29T03:53:41;98446.00;;;10.10
8362;BMP180;4218;48.326;14.304;2023-05-29T03:56:07;98440.00;;;10.10
8362;BMP180;4218;48.326;14.304;2023-05-29T03:58:35;98448.00;;;10.10
8362;BMP180;4218;48.326;14.304;2023-05-29T04:01:02;98451.00;;;10.10
8362;BMP180;4218;48.326;14.304;2023-05-29T04:03:29;98458.00;;;10.20
8362;BMP180;4218;48.326;14.304;2023-05-29T04:05:56;98450.00;;;10.20
8362;BMP180;4218;48.326;14.304;2023-05-29T04:08:22;98453.00;;;10.30
8362;BMP180;4218;48.326;14.304;2023-05-29T04:10:47;98448.00;;;10.60
8362;BMP180;4218;48.326;14.304;2023-05-29T04:13:12;98454.00;;;10.60
8362;BMP180;4218;48.326;14.304;2023-05-29T04:15:41;98463.00;;;10.50
8362;BMP180;4218;48.326;14.304;2023-05-29T04:18:07;98463.00;;;10.50
8362;BMP180;4218;48.326;14.304;2023-05-29T04:20:34;98464.00;;;10.50
8362;BMP180;4218;48.326;14.304;2023-05-29T04:23:00;98459.00;;;10.50
8362;BMP180;4218;48.326;14.304;2023-05-29T04:25:26;98462.00;;;10.60
8362;BMP180;4218;48.326;14.304;2023-05-29T04:27:52;98476.00;;;10.60
8362;BMP180;4218;48.326;14.304;2023-05-29T04:30:19;98470.00;;;10.80
8362;BMP180;4218;48.326;14.304;2023-05-29T04:32:46;98480.00;;;10.90
8362;BMP180;4218;48.326;14.304;2023-05-29T04:35:21;98482.00;;;11.00
8362;BMP180;4218;48.326;14.304;2023-05-29T04:37:52;98489.00;;;11.10
8362;BMP180;4218;48.326;14.304;2023-05-29T04:40:25;98489.00;;;11.20
8362;BMP180;4218;48.326;14.304;2023-05-29T04:42:52;98488.00;;;11.30
8362;BMP180;4218;48.326;14.304;2023-05-29T04:45:20;98492.00;;;11.40
8362;BMP180;4218;48.326;14.304;2023-05-29T04:47:49;98493.00;;;11.60
8362;BMP180;4218;48.326;14.304;2023-05-29T04:50:24;98501.00;;;11.70
8362;BMP180;4218;48.326;14.304;2023-05-29T04:53:00;98499.00;;;12.00
8362;BMP180;4218;48.326;14.304;2023-05-29T04:55:34;98502.00;;;12.10
8362;BMP180;4218;48.326;14.304;2023-05-29T04:58:12;98502.00;;;12.30
8362;BMP180;4218;48.326;14.304;2023-05-29T05:00:49;98500.00;;;12.40
8362;BMP180;4218;48.326;14.304;2023-05-29T05:03:34;98506.00;;;12.40
8362;BMP180;4218;48.326;14.304;2023-05-29T05:16:37;98510.00;;;13.20
8362;BMP180;4218;48.326;14.304;2023-05-29T05:19:03;98505.00;;;13.10
8362;BMP180;4218;48.326;14.304;2023-05-29T05:21:29;98508.00;;;13.10
8362;BMP180;4218;48.326;14.304;2023-05-29T05:24:02;98513.00;;;13.10
8362;BMP180;4218;48.326;14.304;2023-05-29T05:26:29;98507.00;;;13.20
8362;BMP180;4218;48.326;14.304;2023-05-29T05:29:00;98506.00;;;13.30
8362;BMP180;4218;48.326;14.304;2023-05-29T05:31:29;98517.00;;;13.40
8362;BMP180;4218;48.326;14.304;2023-05-29T05:33:57;98515.00;;;13.70
8362;BMP180;4218;48.326;14.304;2023-05-29T05:36:27;98518.00;;;13.70
8362;BMP180;4218;48.326;14.304;2023-05-29T05:39:06;98511.00;;;13.60
8362;BMP180;4218;48.326;14.304;2023-05-29T05:41:52;98514.00;;;13.70
8362;BMP180;4218;48.326;14.304;2023-05-29T05:44:31;98509.00;;;13.80
8362;BMP180;4218;48.326;14.304;2023-05-29T05:47:08;98505.00;;;13.90
8362;BMP180;4218;48.326;14.304;2023-05-29T06:04:01;98520.00;;;14.90
8362;BMP180;4218;48.326;14.304;2023-05-29T07:07:29;98554.00;;;16.70
8362;BMP180;4218;48.326;14.304;2023-05-29T07:21:14;98567.00;;;17.90
8362;BMP180;4218;48.326;14.304;2023-05-29T07:23:46;98568.00;;;18.00
8362;BMP180;4218;48.326;14.304;2023-05-29T07:26:15;98570.00;;;18.30
8362;BMP180;4218;48.326;14.304;2023-05-29T07:28:47;98573.00;;;18.30
8362;BMP180;4218;48.326;14.304;2023-05-29T07:31:12;98573.00;;;18.30
8362;BMP180;4218;48.326;14.304;2023-05-29T07:33:40;98567.00;;;18.10
8362;BMP180;4218;48.326;14.304;2023-05-29T07:36:06;98573.00;;;18.60
8362;BMP180;4218;48.326;14.304;2023-05-29T07:38:32;98567.00;;;18.60
8362;BMP180;4218;48.326;14.304;2023-05-29T07:40:58;98568.00;;;18.80
8362;BMP180;4218;48.326;14.304;2023-05-29T07:43:23;98564.00;;;18.90
8362;BMP180;4218;48.326;14.304;2023-05-29T07:45:48;98581.00;;;18.90
8362;BMP180;4218;48.326;14.304;2023-05-29T07:48:14;98574.00;;;19.00
8362;BMP180;4218;48.326;14.304;2023-05-29T07:50:39;98571.00;;;18.90
8362;BMP180;4218;48.326;14.304;2023-05-29T07:53:05;98568.00;;;19.10
8362;BMP180;4218;48.326;14.304;2023-05-29T07:55:31;98562.00;;;19.10
8362;BMP180;4218;48.326;14.304;2023-05-29T07:57:56;98572.00;;;19.30
8362;BMP180;4218;48.326;14.304;2023-05-29T08:00:21;98569.00;;;19.20
8362;BMP180;4218;48.326;14.304;2023-05-29T08:02:47;98569.00;;;19.30
8362;BMP180;4218;48.326;14.304;2023-05-29T08:05:12;98572.00;;;19.40
8362;BMP180;4218;48.326;14.304;2023-05-29T08:07:38;98565.00;;;19.50
8362;BMP180;4218;48.326;14.304;2023-05-29T08:10:05;98564.00;;;19.60
8362;BMP180;4218;48.326;14.304;2023-05-29T08:12:30;98566.00;;;19.60
8362;BMP180;4218;48.326;14.304;2023-05-29T08:14:56;98574.00;;;19.80
8362;BMP180;4218;48.326;14.304;2023-05-29T08:17:21;98574.00;;;19.80
8362;BMP180;4218;48.326;14.304;2023-05-29T08:19:47;98576.00;;;19.90
8362;BMP180;4218;48.326;14.304;2023-05-29T08:22:13;98573.00;;;19.80
8362;BMP180;4218;48.326;14.304;2023-05-29T08:24:40;98570.00;;;19.90
8362;BMP180;4218;48.326;14.304;2023-05-29T08:27:05;98578.00;;;19.80
8362;BMP180;4218;48.326;14.304;2023-05-29T08:29:30;98583.00;;;20.20
8362;BMP180;4218;48.326;14.304;2023-05-29T08:31:56;98569.00;;;20.30
8362;BMP180;4218;48.326;14.304;2023-05-29T08:34:21;98569.00;;;20.30
8362;BMP180;4218;48.326;14.304;2023-05-29T08:36:46;98580.00;;;20.20
8362;BMP180;4218;48.326;14.304;2023-05-29T08:39:12;98570.00;;;20.10
8362;BMP180;4218;48.326;14.304;2023-05-29T08:42:07;98574.00;;;20.40
8362;BMP180;4218;48.326;14.304;2023-05-29T08:44:29;98575.00;;;20.30
8362;BMP180;4218;48.326;14.304;2023-05-29T08:46:55;98577.00;;;20.40
8362;BMP180;4218;48.326;14.304;2023-05-29T08:49:22;98574.00;;;20.40
8362;BMP180;4218;48.326;14.304;2023-05-29T08:51:49;98577.00;;;20.50
8362;BMP180;4218;48.326;14.304;2023-05-29T08:54:19;98577.00;;;20.70
8362;BMP180;4218;48.326;14.304;2023-05-29T08:56:45;98567.00;;;20.70
8362;BMP180;4218;48.326;14.304;2023-05-29T08:59:11;98574.00;;;20.80
8362;BMP180;4218;48.326;14.304;2023-05-29T09:01:37;98571.00;;;20.80
8362;BMP180;4218;48.326;14.304;2023-05-29T09:04:04;98564.00;;;20.90
8362;BMP180;4218;48.326;14.304;2023-05-29T09:06:30;98560.00;;;20.80
8362;BMP180;4218;48.326;14.304;2023-05-29T09:08:56;98564.00;;;21.00
8362;BMP180;4218;48.326;14.304;2023-05-29T09:11:23;98565.00;;;21.00
8362;BMP180;4218;48.326;14.304;2023-05-29T09:13:48;98564.00;;;21.20
8362;BMP180;4218;48.326;14.304;2023-05-29T09:16:16;98561.00;;;21.20
8362;BMP180;4218;48.326;14.304;2023-05-29T09:18:41;98560.00;;;21.30
8362;BMP180;4218;48.326;14.304;2023-05-29T09:21:10;98563.00;;;21.20
8362;BMP180;4218;48.326;14.304;2023-05-29T09:23:52;98566.00;;;21.40
8362;BMP180;4218;48.326;14.304;2023-05-29T09:26:17;98565.00;;;21.50
8362;BMP180;4218;48.326;14.304;2023-05-29T09:28:45;98560.00;;;21.60
8362;BMP180;4218;48.326;14.304;2023-05-29T09:31:14;98555.00;;;21.70
8362;BMP180;4218;48.326;14.304;2023-05-29T09:33:49;98561.00;;;21.70
8362;BMP180;4218;48.326;14.304;2023-05-29T09:36:23;98556.00;;;21.80
8362;BMP180;4218;48.326;14.304;2023-05-29T09:38:50;98559.00;;;21.90
8362;BMP180;4218;48.326;14.304;2023-05-29T09:41:22;98554.00;;;21.80
8362;BMP180;4218;48.326;14.304;2023-05-29T09:43:49;98546.00;;;21.80
8362;BMP180;4218;48.326;14.304;2023-05-29T09:46:15;98557.00;;;22.10
8362;BMP180;4218;48.326;14.304;2023-05-29T09:48:42;98546.00;;;22.00
8362;BMP180;4218;48.326;14.304;2023-05-29T09:51:21;98549.00;;;21.80
8362;BMP180;4218;48.326;14.304;2023-05-29T09:53:48;98547.00;;;22.10
8362;BMP180;4218;48.326;14.304;2023-05-29T09:56:16;98548.00;;;22.10
8362;BMP180;4218;48.326;14.304;2023-05-29T09:58:43;98553.00;;;22.10
8362;BMP180;4218;48.326;14.304;2023-05-29T10:01:14;98551.00;;;22.10
8362;BMP180;4218;48.326;14.304;2023-05-29T10:03:43;98553.00;;;22.20
8362;BMP180;4218;48.326;14.304;2023-05-29T10:06:10;98553.00;;;22.40
8362;BMP180;4218;48.326;14.304;2023-05-29T10:08:45;98551.00;;;22.40
8362;BMP180;4218;48.326;14.304;2023-05-29T10:11:14;98554.00;;;22.50
8362;BMP180;4218;48.326;14.304;2023-05-29T10:13:42;98546.00;;;22.70
8362;BMP180;4218;48.326;14.304;2023-05-29T10:16:14;98547.00;;;22.70
8362;BMP180;4218;48.326;14.304;2023-05-29T10:18:42;98538.00;;;22.80
8362;BMP180;4218;48.326;14.304;2023-05-29T10:21:11;98547.00;;;22.70
8362;BMP180;4218;48.326;14.304;2023-05-29T10:23:38;98538.00;;;22.70
8362;BMP180;4218;48.326;14.304;2023-05-29T10:26:25;98539.00;;;22.70
8362;BMP180;4218;48.326;14.304;2023-05-29T10:29:23;98543.00;;;22.90
8362;BMP180;4218;48.326;14.304;2023-05-29T10:37:25;98538.00;;;23.00
8362;BMP180;4218;48.326;14.304;2023-05-29T10:39:53;98541.00;;;23.20
8362;BMP180;4218;48.326;14.304;2023-05-29T10:45:06;98549.00;;;23.30
8362;BMP180;4218;48.326;14.304;2023-05-29T10:47:32;98543.00;;;23.30
8362;BMP180;4218;48.326;14.304;2023-05-29T10:50:01;98547.00;;;23.10
8362;BMP180;4218;48.326;14.304;2023-05-29T10:52:33;98537.00;;;23.20
8362;BMP180;4218;48.326;14.304;2023-05-29T10:55:00;98543.00;;;23.10
8362;BMP180;4218;48.326;14.304;2023-05-29T10:57:29;98537.00;;;23.30
8362;BMP180;4218;48.326;14.304;2023-05-29T11:00:05;98530.00;;;23.50
8362;BMP180;4218;48.326;14.304;2023-05-29T11:02:35;98537.00;;;23.50
8362;BMP180;4218;48.326;14.304;2023-05-29T11:05:20;98536.00;;;23.70
8362;BMP180;4218;48.326;14.304;2023-05-29T11:10:43;98523.00;;;23.60
8362;BMP180;4218;48.326;14.304;2023-05-29T11:13:09;98520.00;;;23.40
8362;BMP180;4218;48.326;14.304;2023-05-29T11:15:36;98536.00;;;23.40
8362;BMP180;4218;48.326;14.304;2023-05-29T11:18:07;98523.00;;;23.30
8362;BMP180;4218;48.326;14.304;2023-05-29T11:23:16;98531.00;;;23.60
8362;BMP180;4218;48.326;14.304;2023-05-29T11:25:46;98515.00;;;23.90
8362;BMP180;4218;48.326;14.304;2023-05-29T11:28:12;98528.00;;;23.90
8362;BMP180;4218;48.326;14.304;2023-05-29T11:30:45;98524.00;;;24.00
8362;BMP180;4218;48.326;14.304;2023-05-29T11:33:23;98529.00;;;24.00
8362;BMP180;4218;48.326;14.304;2023-05-29T11:35:57;98520.00;;;23.70
8362;BMP180;4218;48.326;14.304;2023-05-29T11:38:23;98528.00;;;23.90
8362;BMP180;4218;48.326;14.304;2023-05-29T11:40:50;98515.00;;;24.00
8362;BMP180;4218;48.326;14.304;2023-05-29T11:43:15;98513.00;;;23.90
8362;BMP180;4218;48.326;14.304;2023-05-29T11:45:41;98516.00;;;24.10
8362;BMP180;4218;48.326;14.304;2023-05-29T11:48:06;98524.00;;;24.30
8362;BMP180;4218;48.326;14.304;2023-05-29T11:50:33;98521.00;;;24.40
8362;BMP180;4218;48.326;14.304;2023-05-29T11:52:59;98521.00;;;24.30
8362;BMP180;4218;48.326;14.304;2023-05-29T11:55:26;98516.00;;;24.40
8362;BMP180;4218;48.326;14.304;2023-05-29T11:58:03;98512.00;;;24.60
8362;BMP180;4218;48.326;14.304;2023-05-29T12:00:34;98517.00;;;24.60
8362;BMP180;4218;48.326;14.304;2023-05-29T12:03:00;98519.00;;;24.80
8362;BMP180;4218;48.326;14.304;2023-05-29T12:05:48;98520.00;;;24.90
8362;BMP180;4218;48.326;14.304;2023-05-29T12:08:15;98526.00;;;24.90
8362;BMP180;4218;48.326;14.304;2023-05-29T12:10:48;98521.00;;;25.20
8362;BMP180;4218;48.326;14.304;2023-05-29T12:13:13;98511.00;;;25.30
8362;BMP180;4218;48.326;14.304;2023-05-29T12:15:42;98521.00;;;25.40
8362;BMP180;4218;48.326;14.304;2023-05-29T12:18:08;98509.00;;;25.40
8362;BMP180;4218;48.326;14.304;2023-05-29T12:20:33;98508.00;;;25.00
8362;BMP180;4218;48.326;14.304;2023-05-29T12:23:01;98496.00;;;25.30
8362;BMP180;4218;48.326;14.304;2023-05-29T12:25:27;98503.00;;;25.40
8362;BMP180;4218;48.326;14.304;2023-05-29T12:27:55;98503.00;;;25.30
8362;BMP180;4218;48.326;14.304;2023-05-29T12:30:21;98500.00;;;25.20
8362;BMP180;4218;48.326;14.304;2023-05-29T12:32:51;98490.00;;;25.00
8362;BMP180;4218;48.326;14.304;2023-05-29T12:35:19;98494.00;;;25.00
8362;BMP180;4218;48.326;14.304;2023-05-29T12:38:05;98491.00;;;24.90
8362;BMP180;4218;48.326;14.304;2023-05-29T12:40:34;98493.00;;;24.80
8362;BMP180;4218;48.326;14.304;2023-05-29T12:43:05;98494.00;;;24.90
8362;BMP180;4218;48.326;14.304;2023-05-29T12:45:32;98499.00;;;25.10
8362;BMP180;4218;48.326;14.304;2023-05-29T12:48:00;98494.00;;;25.20
8362;BMP180;4218;48.326;14.304;2023-05-29T12:50:33;98495.00;;;25.20
8362;BMP180;4218;48.326;14.304;2023-05-29T12:55:28;98488.00;;;25.20
8362;BMP180;4218;48.326;14.304;2023-05-29T12:57:55;98489.00;;;25.10
8362;BMP180;4218;48.326;14.304;2023-05-29T13:00:21;98498.00;;;24.90
8362;BMP180;4218;48.326;14.304;2023-05-29T13:02:47;98495.00;;;25.00
8362;BMP180;4218;48.326;14.304;2023-05-29T13:05:13;98485.00;;;25.10
8362;BMP180;4218;48.326;14.304;2023-05-29T13:07:39;98477.00;;;25.20
8362;BMP180;4218;48.326;14.304;2023-05-29T13:10:05;98479.00;;;25.20
8362;BMP180;4218;48.326;14.304;2023-05-29T13:12:31;98487.00;;;25.40
8362;BMP180;4218;48.326;14.304;2023-05-29T13:14:56;98479.00;;;25.40
8362;BMP180;4218;48.326;14.304;2023-05-29T13:17:22;98473.00;;;25.30
8362;BMP180;4218;48.326;14.304;2023-05-29T13:19:47;98477.00;;;25.50
8362;BMP180;4218;48.326;14.304;2023-05-29T13:22:13;98477.00;;;25.50
8362;BMP180;4218;48.326;14.304;2023-05-29T13:24:38;98479.00;;;25.50
8362;BMP180;4218;48.326;14.304;2023-05-29T13:27:04;98482.00;;;25.50
8362;BMP180;4218;48.326;14.304;2023-05-29T13:29:31;98482.00;;;25.60
8362;BMP180;4218;48.326;14.304;2023-05-29T13:31:56;98488.00;;;25.50
8362;BMP180;4218;48.326;14.304;2023-05-29T13:34:22;98480.00;;;25.50
8362;BMP180;4218;48.326;14.304;2023-05-29T13:36:50;98477.00;;;25.30
8362;BMP180;4218;48.326;14.304;2023-05-29T13:39:16;98490.00;;;25.10
8362;BMP180;4218;48.326;14.304;2023-05-29T13:41:41;98482.00;;;24.80
8362;BMP180;4218;48.326;14.304;2023-05-29T13:44:06;98481.00;;;24.50
8362;BMP180;4218;48.326;14.304;2023-05-29T13:46:32;98475.00;;;24.00
8362;BMP180;4218;48.326;14.304;2023-05-29T13:48:57;98473.00;;;23.80
8362;BMP180;4218;48.326;14.304;2023-05-29T13:51:23;98469.00;;;24.00
8362;BMP180;4218;48.326;14.304;2023-05-29T13:53:48;98469.00;;;24.00
8362;BMP180;4218;48.326;14.304;2023-05-29T13:56:13;98468.00;;;24.00
8362;BMP180;4218;48.326;14.304;2023-05-29T13:58:39;98460.00;;;23.80
8362;BMP180;4218;48.326;14.304;2023-05-29T14:01:04;98460.00;;;23.40
8362;BMP180;4218;48.326;14.304;2023-05-29T14:03:29;98452.00;;;23.60
8362;BMP180;4218;48.326;14.304;2023-05-29T14:05:56;98442.00;;;24.10
8362;BMP180;4218;48.326;14.304;2023-05-29T14:08:22;98447.00;;;24.40
8362;BMP180;4218;48.326;14.304;2023-05-29T14:10:47;98439.00;;;24.60
8362;BMP180;4218;48.326;14.304;2023-05-29T14:13:12;98430.00;;;24.50
8362;BMP180;4218;48.326;14.304;2023-05-29T14:15:38;98444.00;;;24.70
8362;BMP180;4218;48.326;14.304;2023-05-29T14:18:03;98443.00;;;24.60
8362;BMP180;4218;48.326;14.304;2023-05-29T14:20:30;98437.00;;;24.70
8362;BMP180;4218;48.326;14.304;2023-05-29T14:22:55;98434.00;;;24.30
8362;BMP180;4218;48.326;14.304;2023-05-29T14:25:21;98438.00;;;23.70
8362;BMP180;4218;48.326;14.304;2023-05-29T14:27:46;98440.00;;;23.80
8362;BMP180;4218;48.326;14.304;2023-05-29T14:30:12;98441.00;;;23.90
8362;BMP180;4218;48.326;14.304;2023-05-29T14:32:37;98451.00;;;23.70
8362;BMP180;4218;48.326;14.304;2023-05-29T14:35:03;98436.00;;;23.90
8362;BMP180;4218;48.326;14.304;2023-05-29T14:37:28;98443.00;;;23.30
8362;BMP180;4218;48.326;14.304;2023-05-29T14:39:53;98445.00;;;23.30
8362;BMP180;4218;48.326;14.304;2023-05-29T14:42:19;98437.00;;;23.30
8362;BMP180;4218;48.326;14.304;2023-05-29T14:44:45;98425.00;;;23.70
8362;BMP180;4218;48.326;14.304;2023-05-29T14:47:11;98433.00;;;23.70
8362;BMP180;4218;48.326;14.304;2023-05-29T14:49:37;98439.00;;;23.60
8362;BMP180;4218;48.326;14.304;2023-05-29T14:52:04;98426.00;;;24.10
8362;BMP180;4218;48.326;14.304;2023-05-29T14:54:29;98414.00;;;24.30
8362;BMP180;4218;48.326;14.304;2023-05-29T14:56:55;98428.00;;;24.40
8362;BMP180;4218;48.326;14.304;2023-05-29T14:59:22;98409.00;;;24.30
8362;BMP180;4218;48.326;14.304;2023-05-29T15:01:48;98420.00;;;24.60
8362;BMP180;4218;48.326;14.304;2023-05-29T15:04:13;98409.00;;;24.60
8362;BMP180;4218;48.326;14.304;2023-05-29T15:06:39;98405.00;;;24.50
8362;BMP180;4218;48.326;14.304;2023-05-29T15:09:04;98406.00;;;24.70
8362;BMP180;4218;48.326;14.304;2023-05-29T15:11:30;98420.00;;;24.40
8362;BMP180;4218;48.326;14.304;2023-05-29T15:13:56;98423.00;;;24.20
8362;BMP180;4218;48.326;14.304;2023-05-29T15:16:21;98413.00;;;24.20
8362;BMP180;4218;48.326;14.304;2023-05-29T15:18:49;98413.00;;;24.40
8362;BMP180;4218;48.326;14.304;2023-05-29T15:21:15;98409.00;;;24.50
8362;BMP180;4218;48.326;14.304;2023-05-29T15:23:40;98411.00;;;24.60
8362;BMP180;4218;48.326;14.304;2023-05-29T15:26:08;98406.00;;;24.60
8362;BMP180;4218;48.326;14.304;2023-05-29T15:28:34;98408.00;;;24.60
8362;BMP180;4218;48.326;14.304;2023-05-29T15:30:59;98408.00;;;24.70
8362;BMP180;4218;48.326;14.304;2023-05-29T15:33:25;98411.00;;;24.30
8362;BMP180;4218;48.326;14.304;2023-05-29T15:35:51;98414.00;;;24.20
8362;BMP180;4218;48.326;14.304;2023-05-29T15:38:16;98407.00;;;24.10
8362;BMP180;4218;48.326;14.304;2023-05-29T15:40:42;98407.00;;;24.00
8362;BMP180;4218;48.326;14.304;2023-05-29T15:43:08;98408.00;;;24.10
8362;BMP180;4218;48.326;14.304;2023-05-29T15:45:33;98414.00;;;24.40
8362;BMP180;4218;48.326;14.304;2023-05-29T15:47:59;98393.00;;;24.50
8362;BMP180;4218;48.326;14.304;2023-05-29T15:50:25;98391.00;;;24.40
8362;BMP180;4218;48.326;14.304;2023-05-29T15:52:50;98388.00;;;24.40
8362;BMP180;4218;48.326;14.304;2023-05-29T15:55:18;98392.00;;;24.10
8362;BMP180;4218;48.326;14.304;2023-05-29T15:57:44;98400.00;;;23.80
8362;BMP180;4218;48.326;14.304;2023-05-29T16:00:10;98396.00;;;24.20
8362;BMP180;4218;48.326;14.304;2023-05-29T16:02:40;98402.00;;;24.10
8362;BMP180;4218;48.326;14.304;2023-05-29T16:05:06;98407.00;;;23.90
8362;BMP180;4218;48.326;14.304;2023-05-29T16:07:32;98395.00;;;23.90
8362;BMP180;4218;48.326;14.304;2023-05-29T16:09:57;98401.00;;;23.70
8362;BMP180;4218;48.326;14.304;2023-05-29T16:12:23;98398.00;;;23.70
8362;BMP180;4218;48.326;14.304;2023-05-29T16:14:48;98406.00;;;23.70
8362;BMP180;4218;48.326;14.304;2023-05-29T16:17:14;98405.00;;;23.60
8362;BMP180;4218;48.326;14.304;2023-05-29T16:19:39;98399.00;;;23.70
8362;BMP180;4218;48.326;14.304;2023-05-29T16:22:06;98405.00;;;23.80
8362;BMP180;4218;48.326;14.304;2023-05-29T16:24:32;98400.00;;;23.50
8362;BMP180;4218;48.326;14.304;2023-05-29T16:26:59;98407.00;;;23.50